sensor_id;sensor_type;location;lat;lon;timestamp;P1;durP1;ratioP1;P2;durP2;ratioP2
18251;SDS011;26917;52.328;20.878;2022-07-23T00:01:30;22.80;;;14.60;;
18251;SDS011;26917;52.328;20.878;2022-07-23T00:03:59;19.80;;;13.95;;
18251;SDS011;26917;52.328;20.878;2022-07-23T00:06:27;20.50;;;13.73;;
18251;SDS011;26917;52.328;20.878;2022-07-23T00:08:56;16.65;;;13.77;;
18251;SDS011;26917;52.328;20.878;2022-07-23T00:11:24;17.15;;;12.63;;
18251;SDS011;26917;52.328;20.878;2022-07-23T00:13:54;18.23;;;13.63;;
18251;SDS011;26917;52.328;20.878;2022-07-23T00:16:24;16.52;;;12.88;;
18251;SDS011;26917;52.328;20.878;2022-07-23T00:18:53;19.45;;;13.15;;
18251;SDS011;26917;52.328;20.878;2022-07-23T00:21:21;15.60;;;13.52;;
18251;SDS011;26917;52.328;20.878;2022-07-23T00:23:51;16.52;;;12.70;;
18251;SDS011;26917;52.328;20.878;2022-07-23T00:26:19;16.70;;;13.70;;
18251;SDS011;26917;52.328;20.878;2022-07-23T00:28:48;18.10;;;13.75;;
18251;SDS011;26917;52.328;20.878;2022-07-23T00:31:22;17.85;;;12.65;;
18251;SDS011;26917;52.328;20.878;2022-07-23T00:33:50;18.02;;;12.98;;
18251;SDS011;26917;52.328;20.878;2022-07-23T00:36:23;16.40;;;12.45;;
18251;SDS011;26917;52.328;20.878;2022-07-23T00:38:51;17.38;;;13.32;;
18251;SDS011;26917;52.328;20.878;2022-07-23T00:41:20;23.85;;;14.23;;
18251;SDS011;26917;52.328;20.878;2022-07-23T00:43:48;18.42;;;13.55;;
18251;SDS011;26917;52.328;20.878;2022-07-23T00:46:18;19.58;;;13.60;;
18251;SDS011;26917;52.328;20.878;2022-07-23T00:48:48;15.73;;;12.93;;
18251;SDS011;26917;52.328;20.878;2022-07-23T00:51:34;19.40;;;13.73;;
18251;SDS011;26917;52.328;20.878;2022-07-23T00:54:03;15.27;;;12.98;;
18251;SDS011;26917;52.328;20.878;2022-07-23T00:56:31;17.25;;;14.00;;
18251;SDS011;26917;52.328;20.878;2022-07-23T00:59:00;18.45;;;12.73;;
18251;SDS011;26917;52.328;20.878;2022-07-23T01:01:29;20.73;;;14.93;;
18251;SDS011;26917;52.328;20.878;2022-07-23T01:03:59;18.98;;;14.10;;
18251;SDS011;26917;52.328;20.878;2022-07-23T01:06:28;18.70;;;14.70;;
18251;SDS011;26917;52.328;20.878;2022-07-23T01:08:56;21.95;;;13.48;;
18251;SDS011;26917;52.328;20.878;2022-07-23T01:11:25;23.17;;;14.88;;
18251;SDS011;26917;52.328;20.878;2022-07-23T01:13:54;16.30;;;13.95;;
18251;SDS011;26917;52.328;20.878;2022-07-23T01:16:22;18.63;;;14.95;;
18251;SDS011;26917;52.328;20.878;2022-07-23T01:18:51;19.33;;;14.75;;
18251;SDS011;26917;52.328;20.878;2022-07-23T01:21:21;17.45;;;14.35;;
18251;SDS011;26917;52.328;20.878;2022-07-23T01:23:51;16.38;;;13.70;;
18251;SDS011;26917;52.328;20.878;2022-07-23T01:26:20;22.30;;;16.13;;
18251;SDS011;26917;52.328;20.878;2022-07-23T01:28:48;21.65;;;15.00;;
18251;SDS011;26917;52.328;20.878;2022-07-23T01:31:16;22.08;;;16.75;;
18251;SDS011;26917;52.328;20.878;2022-07-23T01:33:45;18.77;;;15.13;;
18251;SDS011;26917;52.328;20.878;2022-07-23T01:36:14;22.05;;;16.55;;
18251;SDS011;26917;52.328;20.878;2022-07-23T01:38:42;23.85;;;17.30;;
18251;SDS011;26917;52.328;20.878;2022-07-23T01:41:13;21.85;;;17.52;;
18251;SDS011;26917;52.328;20.878;2022-07-23T01:43:42;25.02;;;17.95;;
18251;SDS011;26917;52.328;20.878;2022-07-23T01:46:10;25.52;;;17.45;;
18251;SDS011;26917;52.328;20.878;2022-07-23T01:48:44;20.15;;;17.13;;
18251;SDS011;26917;52.328;20.878;2022-07-23T01:51:42;23.17;;;16.25;;
18251;SDS011;26917;52.328;20.878;2022-07-23T01:54:27;19.10;;;15.68;;
18251;SDS011;26917;52.328;20.878;2022-07-23T01:56:58;26.98;;;17.33;;
18251;SDS011;26917;52.328;20.878;2022-07-23T01:59:28;25.67;;;16.92;;
18251;SDS011;26917;52.328;20.878;2022-07-23T02:01:57;19.25;;;15.25;;
18251;SDS011;26917;52.328;20.878;2022-07-23T02:04:27;20.90;;;16.10;;
18251;SDS011;26917;52.328;20.878;2022-07-23T02:06:56;20.13;;;16.55;;
18251;SDS011;26917;52.328;20.878;2022-07-23T02:09:26;22.33;;;16.63;;
18251;SDS011;26917;52.328;20.878;2022-07-23T02:11:54;21.67;;;16.02;;
18251;SDS011;26917;52.328;20.878;2022-07-23T02:14:24;24.92;;;17.55;;
18251;SDS011;26917;52.328;20.878;2022-07-23T02:16:53;22.58;;;17.23;;
18251;SDS011;26917;52.328;20.878;2022-07-23T02:19:22;22.08;;;16.73;;
18251;SDS011;26917;52.328;20.878;2022-07-23T02:21:50;22.65;;;16.52;;
18251;SDS011;26917;52.328;20.878;2022-07-23T02:24:20;19.20;;;14.77;;
18251;SDS011;26917;52.328;20.878;2022-07-23T02:26:49;20.67;;;16.75;;
18251;SDS011;26917;52.328;20.878;2022-07-23T02:29:18;19.63;;;16.52;;
18251;SDS011;26917;52.328;20.878;2022-07-23T02:31:47;23.25;;;16.85;;
18251;SDS011;26917;52.328;20.878;2022-07-23T02:34:16;27.30;;;17.05;;
18251;SDS011;26917;52.328;20.878;2022-07-23T02:36:44;24.65;;;17.33;;
18251;SDS011;26917;52.328;20.878;2022-07-23T02:39:13;19.20;;;16.23;;
18251;SDS011;26917;52.328;20.878;2022-07-23T02:41:42;23.90;;;16.42;;
18251;SDS011;26917;52.328;20.878;2022-07-23T02:44:11;19.75;;;16.55;;
18251;SDS011;26917;52.328;20.878;2022-07-23T02:46:43;20.85;;;15.48;;
18251;SDS011;26917;52.328;20.878;2022-07-23T02:49:13;23.83;;;16.40;;
18251;SDS011;26917;52.328;20.878;2022-07-23T02:51:41;25.90;;;16.00;;
18251;SDS011;26917;52.328;20.878;2022-07-23T02:54:10;20.90;;;16.30;;
18251;SDS011;26917;52.328;20.878;2022-07-23T02:56:39;21.83;;;16.40;;
18251;SDS011;26917;52.328;20.878;2022-07-23T02:59:08;27.77;;;15.48;;
18251;SDS011;26917;52.328;20.878;2022-07-23T03:01:37;20.65;;;15.98;;
18251;SDS011;26917;52.328;20.878;2022-07-23T03:04:07;21.95;;;16.02;;
18251;SDS011;26917;52.328;20.878;2022-07-23T03:06:37;20.30;;;15.95;;
18251;SDS011;26917;52.328;20.878;2022-07-23T03:09:06;22.20;;;15.45;;
18251;SDS011;26917;52.328;20.878;2022-07-23T03:11:37;23.95;;;17.23;;
18251;SDS011;26917;52.328;20.878;2022-07-23T03:14:05;23.60;;;17.10;;
18251;SDS011;26917;52.328;20.878;2022-07-23T03:16:35;23.35;;;16.20;;
18251;SDS011;26917;52.328;20.878;2022-07-23T03:19:03;23.38;;;16.65;;
18251;SDS011;26917;52.328;20.878;2022-07-23T03:21:32;21.30;;;16.75;;
18251;SDS011;26917;52.328;20.878;2022-07-23T03:24:02;23.45;;;17.00;;
18251;SDS011;26917;52.328;20.878;2022-07-23T03:26:34;22.60;;;17.02;;
18251;SDS011;26917;52.328;20.878;2022-07-23T03:29:03;24.55;;;17.85;;
18251;SDS011;26917;52.328;20.878;2022-07-23T03:31:31;24.42;;;18.30;;
18251;SDS011;26917;52.328;20.878;2022-07-23T03:34:00;26.33;;;16.02;;
18251;SDS011;26917;52.328;20.878;2022-07-23T03:36:29;26.23;;;17.98;;
18251;SDS011;26917;52.328;20.878;2022-07-23T03:38:58;25.13;;;18.08;;
18251;SDS011;26917;52.328;20.878;2022-07-23T03:41:29;24.15;;;17.48;;
18251;SDS011;26917;52.328;20.878;2022-07-23T03:43:58;20.58;;;16.42;;
18251;SDS011;26917;52.328;20.878;2022-07-23T03:46:26;25.20;;;17.38;;
18251;SDS011;26917;52.328;20.878;2022-07-23T03:48:55;23.70;;;18.30;;
18251;SDS011;26917;52.328;20.878;2022-07-23T03:51:24;26.60;;;17.60;;
18251;SDS011;26917;52.328;20.878;2022-07-23T03:53:53;23.08;;;17.65;;
18251;SDS011;26917;52.328;20.878;2022-07-23T03:56:22;24.33;;;16.95;;
18251;SDS011;26917;52.328;20.878;2022-07-23T03:58:51;23.13;;;16.25;;
18251;SDS011;26917;52.328;20.878;2022-07-23T04:01:20;21.20;;;16.90;;
18251;SDS011;26917;52.328;20.878;2022-07-23T04:03:48;25.63;;;16.92;;
18251;SDS011;26917;52.328;20.878;2022-07-23T04:06:17;24.15;;;16.58;;
18251;SDS011;26917;52.328;20.878;2022-07-23T04:08:46;23.88;;;18.02;;
18251;SDS011;26917;52.328;20.878;2022-07-23T04:11:15;25.77;;;16.83;;
18251;SDS011;26917;52.328;20.878;2022-07-23T04:13:43;21.95;;;16.48;;
18251;SDS011;26917;52.328;20.878;2022-07-23T04:16:14;25.13;;;16.25;;
18251;SDS011;26917;52.328;20.878;2022-07-23T04:18:44;22.98;;;16.13;;
18251;SDS011;26917;52.328;20.878;2022-07-23T04:21:16;19.85;;;16.40;;
18251;SDS011;26917;52.328;20.878;2022-07-23T04:23:46;25.58;;;16.90;;
18251;SDS011;26917;52.328;20.878;2022-07-23T04:26:14;20.08;;;16.63;;
18251;SDS011;26917;52.328;20.878;2022-07-23T04:28:45;25.75;;;16.98;;
18251;SDS011;26917;52.328;20.878;2022-07-23T04:31:15;25.83;;;17.17;;
18251;SDS011;26917;52.328;20.878;2022-07-23T04:33:44;19.77;;;15.70;;
18251;SDS011;26917;52.328;20.878;2022-07-23T04:36:12;24.30;;;16.98;;
18251;SDS011;26917;52.328;20.878;2022-07-23T04:38:41;25.17;;;17.08;;
18251;SDS011;26917;52.328;20.878;2022-07-23T04:41:09;25.65;;;17.80;;
18251;SDS011;26917;52.328;20.878;2022-07-23T04:43:38;20.40;;;16.13;;
18251;SDS011;26917;52.328;20.878;2022-07-23T04:46:07;24.42;;;17.85;;
18251;SDS011;26917;52.328;20.878;2022-07-23T04:48:45;21.55;;;16.70;;
18251;SDS011;26917;52.328;20.878;2022-07-23T04:51:14;22.38;;;16.10;;
18251;SDS011;26917;52.328;20.878;2022-07-23T04:53:43;24.95;;;16.88;;
18251;SDS011;26917;52.328;20.878;2022-07-23T04:56:11;26.70;;;17.25;;
18251;SDS011;26917;52.328;20.878;2022-07-23T04:58:40;21.05;;;17.42;;
18251;SDS011;26917;52.328;20.878;2022-07-23T05:01:09;23.55;;;16.38;;
18251;SDS011;26917;52.328;20.878;2022-07-23T05:03:38;21.10;;;15.68;;
18251;SDS011;26917;52.328;20.878;2022-07-23T05:06:08;24.13;;;18.02;;
18251;SDS011;26917;52.328;20.878;2022-07-23T05:08:36;19.95;;;16.88;;
18251;SDS011;26917;52.328;20.878;2022-07-23T05:11:05;20.25;;;16.13;;
18251;SDS011;26917;52.328;20.878;2022-07-23T05:13:33;22.27;;;17.83;;
18251;SDS011;26917;52.328;20.878;2022-07-23T05:16:04;24.35;;;17.63;;
18251;SDS011;26917;52.328;20.878;2022-07-23T05:18:34;22.75;;;18.45;;
18251;SDS011;26917;52.328;20.878;2022-07-23T05:21:03;23.48;;;17.90;;
18251;SDS011;26917;52.328;20.878;2022-07-23T05:23:34;24.85;;;17.45;;
18251;SDS011;26917;52.328;20.878;2022-07-23T05:26:03;25.30;;;16.63;;
18251;SDS011;26917;52.328;20.878;2022-07-23T05:28:32;24.27;;;17.42;;
18251;SDS011;26917;52.328;20.878;2022-07-23T05:31:00;23.23;;;16.23;;
18251;SDS011;26917;52.328;20.878;2022-07-23T05:33:31;24.02;;;16.02;;
18251;SDS011;26917;52.328;20.878;2022-07-23T05:36:00;23.67;;;15.70;;
18251;SDS011;26917;52.328;20.878;2022-07-23T05:38:31;22.55;;;15.70;;
18251;SDS011;26917;52.328;20.878;2022-07-23T05:41:02;21.42;;;15.23;;
18251;SDS011;26917;52.328;20.878;2022-07-23T05:43:31;21.73;;;16.00;;
18251;SDS011;26917;52.328;20.878;2022-07-23T05:46:06;21.20;;;15.40;;
18251;SDS011;26917;52.328;20.878;2022-07-23T05:48:38;19.23;;;15.35;;
18251;SDS011;26917;52.328;20.878;2022-07-23T05:51:19;20.00;;;15.80;;
18251;SDS011;26917;52.328;20.878;2022-07-23T05:53:51;22.60;;;15.50;;
18251;SDS011;26917;52.328;20.878;2022-07-23T05:56:23;23.75;;;15.65;;
18251;SDS011;26917;52.328;20.878;2022-07-23T05:58:52;22.15;;;16.02;;
18251;SDS011;26917;52.328;20.878;2022-07-23T06:01:21;19.92;;;15.48;;
18251;SDS011;26917;52.328;20.878;2022-07-23T06:03:59;21.02;;;15.63;;
18251;SDS011;26917;52.328;20.878;2022-07-23T06:06:33;21.85;;;16.10;;
18251;SDS011;26917;52.328;20.878;2022-07-23T06:09:03;21.17;;;15.82;;
18251;SDS011;26917;52.328;20.878;2022-07-23T06:11:33;19.55;;;15.88;;
18251;SDS011;26917;52.328;20.878;2022-07-23T06:14:02;24.48;;;15.75;;
18251;SDS011;26917;52.328;20.878;2022-07-23T06:16:55;18.17;;;15.48;;
18251;SDS011;26917;52.328;20.878;2022-07-23T06:19:24;16.83;;;13.45;;
18251;SDS011;26917;52.328;20.878;2022-07-23T06:21:52;17.05;;;13.77;;
18251;SDS011;26917;52.328;20.878;2022-07-23T06:24:31;20.52;;;14.65;;
18251;SDS011;26917;52.328;20.878;2022-07-23T06:27:00;18.35;;;13.32;;
18251;SDS011;26917;52.328;20.878;2022-07-23T06:29:29;16.77;;;13.85;;
18251;SDS011;26917;52.328;20.878;2022-07-23T06:31:57;18.95;;;13.30;;
18251;SDS011;26917;52.328;20.878;2022-07-23T06:34:27;17.02;;;13.50;;
18251;SDS011;26917;52.328;20.878;2022-07-23T06:36:55;19.80;;;13.73;;
18251;SDS011;26917;52.328;20.878;2022-07-23T06:39:25;20.52;;;13.85;;
18251;SDS011;26917;52.328;20.878;2022-07-23T06:41:55;17.85;;;14.18;;
18251;SDS011;26917;52.328;20.878;2022-07-23T06:44:38;16.50;;;12.77;;
18251;SDS011;26917;52.328;20.878;2022-07-23T06:47:06;15.40;;;12.88;;
18251;SDS011;26917;52.328;20.878;2022-07-23T06:49:37;14.85;;;11.93;;
18251;SDS011;26917;52.328;20.878;2022-07-23T06:52:07;13.90;;;12.50;;
18251;SDS011;26917;52.328;20.878;2022-07-23T06:54:36;15.00;;;12.82;;
18251;SDS011;26917;52.328;20.878;2022-07-23T06:57:06;20.90;;;13.32;;
18251;SDS011;26917;52.328;20.878;2022-07-23T06:59:34;14.50;;;11.45;;
18251;SDS011;26917;52.328;20.878;2022-07-23T07:02:08;17.23;;;12.95;;
18251;SDS011;26917;52.328;20.878;2022-07-23T07:04:37;16.15;;;13.20;;
18251;SDS011;26917;52.328;20.878;2022-07-23T07:07:05;20.13;;;13.68;;
18251;SDS011;26917;52.328;20.878;2022-07-23T07:09:33;16.52;;;14.57;;
18251;SDS011;26917;52.328;20.878;2022-07-23T07:12:02;14.55;;;13.15;;
18251;SDS011;26917;52.328;20.878;2022-07-23T07:14:32;15.18;;;13.45;;
18251;SDS011;26917;52.328;20.878;2022-07-23T07:17:01;17.33;;;12.88;;
18251;SDS011;26917;52.328;20.878;2022-07-23T07:19:32;13.80;;;12.38;;
18251;SDS011;26917;52.328;20.878;2022-07-23T07:22:02;14.00;;;12.45;;
18251;SDS011;26917;52.328;20.878;2022-07-23T07:24:31;20.85;;;13.73;;
18251;SDS011;26917;52.328;20.878;2022-07-23T07:27:04;14.15;;;11.70;;
18251;SDS011;26917;52.328;20.878;2022-07-23T07:29:34;14.35;;;12.02;;
18251;SDS011;26917;52.328;20.878;2022-07-23T07:32:04;13.25;;;10.98;;
18251;SDS011;26917;52.328;20.878;2022-07-23T07:34:33;13.25;;;11.93;;
18251;SDS011;26917;52.328;20.878;2022-07-23T07:37:03;13.93;;;11.65;;
18251;SDS011;26917;52.328;20.878;2022-07-23T07:39:32;11.75;;;10.55;;
18251;SDS011;26917;52.328;20.878;2022-07-23T07:42:03;11.23;;;10.13;;
18251;SDS011;26917;52.328;20.878;2022-07-23T07:44:33;18.55;;;9.60;;
18251;SDS011;26917;52.328;20.878;2022-07-23T07:47:02;11.70;;;9.73;;
18251;SDS011;26917;52.328;20.878;2022-07-23T07:49:30;14.30;;;9.65;;
18251;SDS011;26917;52.328;20.878;2022-07-23T07:52:04;10.35;;;8.93;;
18251;SDS011;26917;52.328;20.878;2022-07-23T07:54:36;13.05;;;9.15;;
18251;SDS011;26917;52.328;20.878;2022-07-23T07:57:04;10.15;;;8.52;;
18251;SDS011;26917;52.328;20.878;2022-07-23T07:59:38;15.07;;;9.13;;
18251;SDS011;26917;52.328;20.878;2022-07-23T08:02:07;11.68;;;9.13;;
18251;SDS011;26917;52.328;20.878;2022-07-23T08:04:35;11.93;;;8.93;;
18251;SDS011;26917;52.328;20.878;2022-07-23T08:07:06;9.80;;;8.32;;
18251;SDS011;26917;52.328;20.878;2022-07-23T08:09:34;17.70;;;9.05;;
18251;SDS011;26917;52.328;20.878;2022-07-23T08:12:03;11.75;;;9.60;;
18251;SDS011;26917;52.328;20.878;2022-07-23T08:14:39;9.68;;;8.70;;
18251;SDS011;26917;52.328;20.878;2022-07-23T08:17:07;11.05;;;8.82;;
18251;SDS011;26917;52.328;20.878;2022-07-23T08:19:40;10.07;;;8.77;;
18251;SDS011;26917;52.328;20.878;2022-07-23T08:22:08;11.52;;;8.52;;
18251;SDS011;26917;52.328;20.878;2022-07-23T08:24:37;10.63;;;9.63;;
18251;SDS011;26917;52.328;20.878;2022-07-23T08:27:05;10.93;;;9.88;;
18251;SDS011;26917;52.328;20.878;2022-07-23T08:29:34;12.90;;;8.23;;
18251;SDS011;26917;52.328;20.878;2022-07-23T08:32:04;10.65;;;9.18;;
18251;SDS011;26917;52.328;20.878;2022-07-23T08:34:53;10.75;;;9.18;;
18251;SDS011;26917;52.328;20.878;2022-07-23T08:37:21;15.75;;;10.70;;
18251;SDS011;26917;52.328;20.878;2022-07-23T08:39:53;14.90;;;8.98;;
18251;SDS011;26917;52.328;20.878;2022-07-23T08:42:25;10.70;;;8.52;;
18251;SDS011;26917;52.328;20.878;2022-07-23T08:44:53;12.15;;;9.13;;
18251;SDS011;26917;52.328;20.878;2022-07-23T08:47:24;12.40;;;9.50;;
18251;SDS011;26917;52.328;20.878;2022-07-23T08:49:54;10.13;;;8.10;;
18251;SDS011;26917;52.328;20.878;2022-07-23T08:52:24;11.43;;;9.32;;
18251;SDS011;26917;52.328;20.878;2022-07-23T08:54:53;9.45;;;8.55;;
18251;SDS011;26917;52.328;20.878;2022-07-23T08:57:25;8.73;;;7.82;;
18251;SDS011;26917;52.328;20.878;2022-07-23T08:59:53;11.18;;;8.98;;
18251;SDS011;26917;52.328;20.878;2022-07-23T09:02:21;11.23;;;8.90;;
18251;SDS011;26917;52.328;20.878;2022-07-23T09:04:51;10.70;;;9.60;;
18251;SDS011;26917;52.328;20.878;2022-07-23T09:07:26;9.70;;;8.45;;
18251;SDS011;26917;52.328;20.878;2022-07-23T09:10:04;11.60;;;8.98;;
18251;SDS011;26917;52.328;20.878;2022-07-23T09:12:40;12.13;;;8.55;;
18251;SDS011;26917;52.328;20.878;2022-07-23T09:15:15;10.77;;;9.07;;
18251;SDS011;26917;52.328;20.878;2022-07-23T09:17:46;9.75;;;8.50;;
18251;SDS011;26917;52.328;20.878;2022-07-23T09:20:16;9.80;;;8.77;;
18251;SDS011;26917;52.328;20.878;2022-07-23T09:22:45;9.45;;;8.52;;
18251;SDS011;26917;52.328;20.878;2022-07-23T09:25:16;8.73;;;7.82;;
18251;SDS011;26917;52.328;20.878;2022-07-23T09:27:51;9.10;;;7.85;;
18251;SDS011;26917;52.328;20.878;2022-07-23T09:30:22;9.30;;;7.47;;
18251;SDS011;26917;52.328;20.878;2022-07-23T09:33:04;10.05;;;7.60;;
18251;SDS011;26917;52.328;20.878;2022-07-23T09:35:44;8.95;;;7.75;;
18251;SDS011;26917;52.328;20.878;2022-07-23T09:38:20;9.63;;;7.68;;
18251;SDS011;26917;52.328;20.878;2022-07-23T09:41:04;9.32;;;8.43;;
18251;SDS011;26917;52.328;20.878;2022-07-23T09:43:34;9.85;;;8.25;;
18251;SDS011;26917;52.328;20.878;2022-07-23T09:46:16;8.93;;;7.57;;
18251;SDS011;26917;52.328;20.878;2022-07-23T09:48:47;9.85;;;8.25;;
18251;SDS011;26917;52.328;20.878;2022-07-23T09:51:16;11.07;;;7.85;;
18251;SDS011;26917;52.328;20.878;2022-07-23T09:53:48;8.85;;;8.05;;
18251;SDS011;26917;52.328;20.878;2022-07-23T09:56:18;9.82;;;8.90;;
18251;SDS011;26917;52.328;20.878;2022-07-23T09:58:54;10.70;;;8.73;;
18251;SDS011;26917;52.328;20.878;2022-07-23T10:01:30;9.15;;;8.35;;
18251;SDS011;26917;52.328;20.878;2022-07-23T10:04:06;9.10;;;7.65;;
18251;SDS011;26917;52.328;20.878;2022-07-23T10:07:08;8.82;;;7.65;;
18251;SDS011;26917;52.328;20.878;2022-07-23T10:10:06;12.05;;;7.22;;
18251;SDS011;26917;52.328;20.878;2022-07-23T10:12:38;8.55;;;7.70;;
18251;SDS011;26917;52.328;20.878;2022-07-23T10:15:25;8.82;;;8.02;;
18251;SDS011;26917;52.328;20.878;2022-07-23T10:17:54;7.97;;;7.28;;
18251;SDS011;26917;52.328;20.878;2022-07-23T10:20:27;8.27;;;7.45;;
18251;SDS011;26917;52.328;20.878;2022-07-23T10:22:57;10.98;;;7.15;;
18251;SDS011;26917;52.328;20.878;2022-07-23T10:25:34;8.93;;;8.00;;
18251;SDS011;26917;52.328;20.878;2022-07-23T10:28:18;10.38;;;7.80;;
18251;SDS011;26917;52.328;20.878;2022-07-23T10:31:02;8.20;;;6.90;;
18251;SDS011;26917;52.328;20.878;2022-07-23T10:34:02;9.68;;;6.80;;
18251;SDS011;26917;52.328;20.878;2022-07-23T10:36:42;7.60;;;6.90;;
18251;SDS011;26917;52.328;20.878;2022-07-23T10:39:17;8.75;;;6.65;;
18251;SDS011;26917;52.328;20.878;2022-07-23T10:41:49;9.60;;;6.90;;
18251;SDS011;26917;52.328;20.878;2022-07-23T10:44:21;7.55;;;6.93;;
18251;SDS011;26917;52.328;20.878;2022-07-23T10:46:54;6.90;;;6.18;;
18251;SDS011;26917;52.328;20.878;2022-07-23T10:49:42;7.53;;;6.32;;
18251;SDS011;26917;52.328;20.878;2022-07-23T10:52:27;11.38;;;6.70;;
18251;SDS011;26917;52.328;20.878;2022-07-23T10:55:29;9.50;;;6.80;;
18251;SDS011;26917;52.328;20.878;2022-07-23T10:58:03;9.48;;;6.88;;
18251;SDS011;26917;52.328;20.878;2022-07-23T11:00:32;7.60;;;6.80;;
18251;SDS011;26917;52.328;20.878;2022-07-23T11:03:04;9.23;;;6.93;;
18251;SDS011;26917;52.328;20.878;2022-07-23T11:05:52;9.52;;;6.97;;
18251;SDS011;26917;52.328;20.878;2022-07-23T11:08:22;12.13;;;6.68;;
18251;SDS011;26917;52.328;20.878;2022-07-23T11:10:52;8.25;;;6.80;;
18251;SDS011;26917;52.328;20.878;2022-07-23T11:13:25;10.82;;;7.00;;
18251;SDS011;26917;52.328;20.878;2022-07-23T11:16:12;9.25;;;7.03;;
18251;SDS011;26917;52.328;20.878;2022-07-23T11:21:45;6.65;;;6.05;;
18251;SDS011;26917;52.328;20.878;2022-07-23T11:24:23;7.75;;;6.95;;
18251;SDS011;26917;52.328;20.878;2022-07-23T11:26:59;8.13;;;7.10;;
18251;SDS011;26917;52.328;20.878;2022-07-23T11:29:44;9.68;;;7.13;;
18251;SDS011;26917;52.328;20.878;2022-07-23T11:35:18;7.50;;;6.75;;
18251;SDS011;26917;52.328;20.878;2022-07-23T11:37:52;7.45;;;6.65;;
18251;SDS011;26917;52.328;20.878;2022-07-23T11:40:33;7.18;;;6.57;;
18251;SDS011;26917;52.328;20.878;2022-07-23T11:43:04;7.65;;;6.72;;
18251;SDS011;26917;52.328;20.878;2022-07-23T11:45:37;7.95;;;7.15;;
18251;SDS011;26917;52.328;20.878;2022-07-23T11:48:18;8.45;;;7.18;;
18251;SDS011;26917;52.328;20.878;2022-07-23T11:50:48;7.30;;;6.70;;
18251;SDS011;26917;52.328;20.878;2022-07-23T11:53:23;8.85;;;7.32;;
18251;SDS011;26917;52.328;20.878;2022-07-23T11:55:56;10.15;;;7.55;;
18251;SDS011;26917;52.328;20.878;2022-07-23T11:58:31;8.85;;;6.63;;
18251;SDS011;26917;52.328;20.878;2022-07-23T12:01:00;9.82;;;6.90;;
18251;SDS011;26917;52.328;20.878;2022-07-23T12:03:29;8.45;;;6.78;;
18251;SDS011;26917;52.328;20.878;2022-07-23T12:05:58;7.63;;;6.82;;
18251;SDS011;26917;52.328;20.878;2022-07-23T12:08:28;9.07;;;7.22;;
18251;SDS011;26917;52.328;20.878;2022-07-23T12:10:58;8.23;;;7.38;;
18251;SDS011;26917;52.328;20.878;2022-07-23T12:13:26;7.35;;;6.53;;
18251;SDS011;26917;52.328;20.878;2022-07-23T12:15:56;9.77;;;6.63;;
18251;SDS011;26917;52.328;20.878;2022-07-23T12:18:26;10.77;;;7.55;;
18251;SDS011;26917;52.328;20.878;2022-07-23T12:20:56;7.78;;;6.90;;
18251;SDS011;26917;52.328;20.878;2022-07-23T12:23:27;10.70;;;7.38;;
18251;SDS011;26917;52.328;20.878;2022-07-23T12:25:55;8.50;;;7.28;;
18251;SDS011;26917;52.328;20.878;2022-07-23T12:28:33;7.80;;;7.03;;
18251;SDS011;26917;52.328;20.878;2022-07-23T12:31:04;10.82;;;7.38;;
18251;SDS011;26917;52.328;20.878;2022-07-23T12:33:34;7.80;;;6.72;;
18251;SDS011;26917;52.328;20.878;2022-07-23T12:36:07;10.30;;;7.13;;
18251;SDS011;26917;52.328;20.878;2022-07-23T12:38:39;9.15;;;7.50;;
18251;SDS011;26917;52.328;20.878;2022-07-23T12:41:14;8.57;;;6.47;;
18251;SDS011;26917;52.328;20.878;2022-07-23T12:43:44;7.88;;;7.15;;
18251;SDS011;26917;52.328;20.878;2022-07-23T12:46:14;8.65;;;7.28;;
18251;SDS011;26917;52.328;20.878;2022-07-23T12:48:50;7.25;;;6.63;;
18251;SDS011;26917;52.328;20.878;2022-07-23T12:51:21;7.50;;;6.75;;
18251;SDS011;26917;52.328;20.878;2022-07-23T12:53:55;7.63;;;6.75;;
18251;SDS011;26917;52.328;20.878;2022-07-23T12:56:30;7.70;;;6.90;;
18251;SDS011;26917;52.328;20.878;2022-07-23T12:59:04;7.60;;;6.85;;
18251;SDS011;26917;52.328;20.878;2022-07-23T13:01:38;12.52;;;6.50;;
18251;SDS011;26917;52.328;20.878;2022-07-23T13:04:17;9.25;;;7.72;;
18251;SDS011;26917;52.328;20.878;2022-07-23T13:06:48;6.68;;;6.00;;
18251;SDS011;26917;52.328;20.878;2022-07-23T13:09:18;7.75;;;6.95;;
18251;SDS011;26917;52.328;20.878;2022-07-23T13:11:50;11.02;;;6.28;;
18251;SDS011;26917;52.328;20.878;2022-07-23T13:14:23;7.70;;;6.80;;
18251;SDS011;26917;52.328;20.878;2022-07-23T13:16:55;9.35;;;7.03;;
18251;SDS011;26917;52.328;20.878;2022-07-23T13:19:27;7.57;;;6.88;;
18251;SDS011;26917;52.328;20.878;2022-07-23T13:21:56;9.55;;;6.63;;
18251;SDS011;26917;52.328;20.878;2022-07-23T13:24:29;10.50;;;7.50;;
18251;SDS011;26917;52.328;20.878;2022-07-23T13:26:59;9.55;;;7.18;;
18251;SDS011;26917;52.328;20.878;2022-07-23T13:29:28;8.27;;;7.47;;
18251;SDS011;26917;52.328;20.878;2022-07-23T13:31:57;12.30;;;8.02;;
18251;SDS011;26917;52.328;20.878;2022-07-23T13:34:26;7.82;;;7.03;;
18251;SDS011;26917;52.328;20.878;2022-07-23T13:36:54;8.05;;;6.90;;
18251;SDS011;26917;52.328;20.878;2022-07-23T13:39:23;7.75;;;6.95;;
18251;SDS011;26917;52.328;20.878;2022-07-23T13:41:54;9.90;;;7.45;;
18251;SDS011;26917;52.328;20.878;2022-07-23T13:44:25;8.00;;;7.20;;
18251;SDS011;26917;52.328;20.878;2022-07-23T13:46:54;8.63;;;6.55;;
18251;SDS011;26917;52.328;20.878;2022-07-23T13:49:24;8.43;;;7.55;;
18251;SDS011;26917;52.328;20.878;2022-07-23T13:51:52;8.60;;;7.70;;
18251;SDS011;26917;52.328;20.878;2022-07-23T13:54:22;8.43;;;7.40;;
18251;SDS011;26917;52.328;20.878;2022-07-23T13:56:50;9.95;;;7.38;;
18251;SDS011;26917;52.328;20.878;2022-07-23T13:59:19;8.65;;;7.63;;
18251;SDS011;26917;52.328;20.878;2022-07-23T14:01:53;11.60;;;7.43;;
18251;SDS011;26917;52.328;20.878;2022-07-23T14:04:42;9.45;;;8.05;;
18251;SDS011;26917;52.328;20.878;2022-07-23T14:07:11;9.80;;;7.75;;
18251;SDS011;26917;52.328;20.878;2022-07-23T14:09:39;9.40;;;8.00;;
18251;SDS011;26917;52.328;20.878;2022-07-23T14:12:09;10.73;;;7.90;;
18251;SDS011;26917;52.328;20.878;2022-07-23T14:14:43;10.57;;;7.90;;
18251;SDS011;26917;52.328;20.878;2022-07-23T14:17:13;10.65;;;8.38;;
18251;SDS011;26917;52.328;20.878;2022-07-23T14:19:41;11.23;;;8.57;;
18251;SDS011;26917;52.328;20.878;2022-07-23T14:22:11;9.55;;;8.63;;
18251;SDS011;26917;52.328;20.878;2022-07-23T14:24:39;14.77;;;8.90;;
18251;SDS011;26917;52.328;20.878;2022-07-23T14:27:08;10.07;;;9.07;;
18251;SDS011;26917;52.328;20.878;2022-07-23T14:29:37;11.15;;;8.27;;
18251;SDS011;26917;52.328;20.878;2022-07-23T14:32:06;10.75;;;8.38;;
18251;SDS011;26917;52.328;20.878;2022-07-23T14:34:36;20.83;;;9.40;;
18251;SDS011;26917;52.328;20.878;2022-07-23T14:37:04;15.85;;;7.68;;
18251;SDS011;26917;52.328;20.878;2022-07-23T14:39:41;24.33;;;8.00;;
18251;SDS011;26917;52.328;20.878;2022-07-23T14:42:11;13.25;;;9.23;;
18251;SDS011;26917;52.328;20.878;2022-07-23T14:44:44;16.80;;;8.13;;
18251;SDS011;26917;52.328;20.878;2022-07-23T14:47:12;25.75;;;11.43;;
18251;SDS011;26917;52.328;20.878;2022-07-23T14:49:48;19.67;;;11.25;;